sensor_id;sensor_type;location;lat;lon;timestamp;P1;durP1;ratioP1;P2;durP2;ratioP2
78871;SDS011;68247;43.514;1.502;2023-04-25T00:00:45;8.63;;;3.17;;
78871;SDS011;68247;43.514;1.502;2023-04-25T00:03:10;7.17;;;3.30;;
78871;SDS011;68247;43.514;1.502;2023-04-25T00:05:36;7.68;;;3.70;;
78871;SDS011;68247;43.514;1.502;2023-04-25T00:08:02;8.07;;;3.63;;
78871;SDS011;68247;43.514;1.502;2023-04-25T00:10:28;10.52;;;3.42;;
78871;SDS011;68247;43.514;1.502;2023-04-25T00:12:53;8.70;;;3.10;;
78871;SDS011;68247;43.514;1.502;2023-04-25T00:15:19;8.10;;;3.67;;
78871;SDS011;68247;43.514;1.502;2023-04-25T00:17:44;9.17;;;3.17;;
78871;SDS011;68247;43.514;1.502;2023-04-25T00:20:10;10.27;;;3.93;;
78871;SDS011;68247;43.514;1.502;2023-04-25T00:22:37;8.70;;;3.35;;
78871;SDS011;68247;43.514;1.502;2023-04-25T00:25:03;6.13;;;3.23;;
78871;SDS011;68247;43.514;1.502;2023-04-25T00:27:30;7.72;;;3.10;;
78871;SDS011;68247;43.514;1.502;2023-04-25T00:29:55;7.37;;;3.00;;
78871;SDS011;68247;43.514;1.502;2023-04-25T00:32:21;8.43;;;3.40;;
78871;SDS011;68247;43.514;1.502;2023-04-25T00:34:46;8.50;;;3.33;;
78871;SDS011;68247;43.514;1.502;2023-04-25T00:37:11;7.30;;;3.20;;
78871;SDS011;68247;43.514;1.502;2023-04-25T00:39:37;7.43;;;2.78;;
78871;SDS011;68247;43.514;1.502;2023-04-25T00:42:03;6.90;;;2.77;;
78871;SDS011;68247;43.514;1.502;2023-04-25T00:44:31;7.33;;;2.63;;
78871;SDS011;68247;43.514;1.502;2023-04-25T00:47:00;7.22;;;2.42;;
78871;SDS011;68247;43.514;1.502;2023-04-25T00:49:27;8.13;;;2.30;;
78871;SDS011;68247;43.514;1.502;2023-04-25T00:51:52;5.77;;;2.37;;
78871;SDS011;68247;43.514;1.502;2023-04-25T00:54:17;7.17;;;2.40;;
78871;SDS011;68247;43.514;1.502;2023-04-25T00:56:44;6.30;;;2.30;;
78871;SDS011;68247;43.514;1.502;2023-04-25T00:59:10;7.18;;;2.53;;
78871;SDS011;68247;43.514;1.502;2023-04-25T01:01:35;3.97;;;2.07;;
78871;SDS011;68247;43.514;1.502;2023-04-25T01:04:02;4.97;;;1.80;;
78871;SDS011;68247;43.514;1.502;2023-04-25T01:06:28;3.93;;;1.60;;
78871;SDS011;68247;43.514;1.502;2023-04-25T01:08:53;3.70;;;1.73;;
78871;SDS011;68247;43.514;1.502;2023-04-25T01:11:19;3.97;;;1.60;;
78871;SDS011;68247;43.514;1.502;2023-04-25T01:13:44;4.78;;;1.63;;
78871;SDS011;68247;43.514;1.502;2023-04-25T01:16:10;4.53;;;1.53;;
78871;SDS011;68247;43.514;1.502;2023-04-25T01:18:36;3.80;;;1.60;;
78871;SDS011;68247;43.514;1.502;2023-04-25T01:21:07;4.63;;;1.37;;
78871;SDS011;68247;43.514;1.502;2023-04-25T01:23:37;3.63;;;1.27;;
78871;SDS011;68247;43.514;1.502;2023-04-25T01:26:03;4.05;;;1.20;;
78871;SDS011;68247;43.514;1.502;2023-04-25T01:28:29;2.83;;;1.20;;
78871;SDS011;68247;43.514;1.502;2023-04-25T01:30:55;3.33;;;1.07;;
78871;SDS011;68247;43.514;1.502;2023-04-25T01:33:21;4.22;;;1.10;;
78871;SDS011;68247;43.514;1.502;2023-04-25T01:35:47;2.67;;;0.87;;
78871;SDS011;68247;43.514;1.502;2023-04-25T01:38:12;3.88;;;1.02;;
78871;SDS011;68247;43.514;1.502;2023-04-25T01:40:40;3.17;;;1.00;;
78871;SDS011;68247;43.514;1.502;2023-04-25T01:43:06;2.30;;;0.77;;
78871;SDS011;68247;43.514;1.502;2023-04-25T01:45:33;3.55;;;1.00;;
78871;SDS011;68247;43.514;1.502;2023-04-25T01:47:59;3.40;;;1.08;;
78871;SDS011;68247;43.514;1.502;2023-04-25T01:50:24;2.23;;;0.63;;
78871;SDS011;68247;43.514;1.502;2023-04-25T01:52:50;2.75;;;0.73;;
78871;SDS011;68247;43.514;1.502;2023-04-25T01:55:16;2.93;;;0.80;;
78871;SDS011;68247;43.514;1.502;2023-04-25T01:57:41;2.30;;;0.70;;
78871;SDS011;68247;43.514;1.502;2023-04-25T02:00:07;2.10;;;0.70;;
78871;SDS011;68247;43.514;1.502;2023-04-25T02:02:34;2.80;;;0.80;;
78871;SDS011;68247;43.514;1.502;2023-04-25T02:05:00;2.30;;;0.67;;
78871;SDS011;68247;43.514;1.502;2023-04-25T02:07:26;2.00;;;0.70;;
78871;SDS011;68247;43.514;1.502;2023-04-25T02:09:51;3.23;;;0.87;;
78871;SDS011;68247;43.514;1.502;2023-04-25T02:12:17;2.00;;;0.73;;
78871;SDS011;68247;43.514;1.502;2023-04-25T02:14:42;2.57;;;0.70;;
78871;SDS011;68247;43.514;1.502;2023-04-25T02:17:08;2.80;;;0.80;;
78871;SDS011;68247;43.514;1.502;2023-04-25T02:19:33;3.37;;;0.90;;
78871;SDS011;68247;43.514;1.502;2023-04-25T02:21:58;1.83;;;0.80;;
78871;SDS011;68247;43.514;1.502;2023-04-25T02:24:24;2.27;;;0.70;;
78871;SDS011;68247;43.514;1.502;2023-04-25T02:26:49;3.00;;;0.70;;
78871;SDS011;68247;43.514;1.502;2023-04-25T02:29:15;2.00;;;0.80;;
78871;SDS011;68247;43.514;1.502;2023-04-25T02:31:41;2.17;;;0.60;;
78871;SDS011;68247;43.514;1.502;2023-04-25T02:34:07;2.10;;;0.70;;
78871;SDS011;68247;43.514;1.502;2023-04-25T02:36:32;2.57;;;0.60;;
78871;SDS011;68247;43.514;1.502;2023-04-25T02:38:59;1.80;;;0.60;;
78871;SDS011;68247;43.514;1.502;2023-04-25T02:41:25;1.90;;;0.50;;
78871;SDS011;68247;43.514;1.502;2023-04-25T02:43:51;2.60;;;0.80;;
78871;SDS011;68247;43.514;1.502;2023-04-25T02:46:16;1.33;;;0.50;;
78871;SDS011;68247;43.514;1.502;2023-04-25T02:48:42;2.10;;;0.70;;
78871;SDS011;68247;43.514;1.502;2023-04-25T02:51:07;2.00;;;0.73;;
78871;SDS011;68247;43.514;1.502;2023-04-25T02:53:33;1.90;;;0.70;;
78871;SDS011;68247;43.514;1.502;2023-04-25T02:55:58;1.70;;;0.70;;
78871;SDS011;68247;43.514;1.502;2023-04-25T02:58:24;1.53;;;0.70;;
78871;SDS011;68247;43.514;1.502;2023-04-25T03:00:49;2.47;;;0.73;;
78871;SDS011;68247;43.514;1.502;2023-04-25T03:03:15;1.97;;;0.70;;
78871;SDS011;68247;43.514;1.502;2023-04-25T03:05:43;2.55;;;0.60;;
78871;SDS011;68247;43.514;1.502;2023-04-25T03:08:08;2.25;;;0.70;;
78871;SDS011;68247;43.514;1.502;2023-04-25T03:10:34;1.80;;;0.70;;
78871;SDS011;68247;43.514;1.502;2023-04-25T03:13:00;2.20;;;0.60;;
78871;SDS011;68247;43.514;1.502;2023-04-25T03:15:25;2.57;;;0.77;;
78871;SDS011;68247;43.514;1.502;2023-04-25T03:17:50;1.73;;;0.70;;
78871;SDS011;68247;43.514;1.502;2023-04-25T03:20:16;2.00;;;0.73;;
78871;SDS011;68247;43.514;1.502;2023-04-25T03:22:41;2.03;;;0.70;;
78871;SDS011;68247;43.514;1.502;2023-04-25T03:25:07;3.20;;;0.95;;
78871;SDS011;68247;43.514;1.502;2023-04-25T03:27:32;2.20;;;0.90;;
78871;SDS011;68247;43.514;1.502;2023-04-25T03:29:58;2.53;;;0.90;;
78871;SDS011;68247;43.514;1.502;2023-04-25T03:32:23;2.28;;;0.90;;
78871;SDS011;68247;43.514;1.502;2023-04-25T03:34:49;2.70;;;0.80;;
78871;SDS011;68247;43.514;1.502;2023-04-25T03:37:15;3.13;;;0.80;;
78871;SDS011;68247;43.514;1.502;2023-04-25T03:39:40;1.88;;;0.82;;
78871;SDS011;68247;43.514;1.502;2023-04-25T03:42:05;1.70;;;0.60;;
78871;SDS011;68247;43.514;1.502;2023-04-25T03:44:31;2.93;;;1.00;;
78871;SDS011;68247;43.514;1.502;2023-04-25T03:46:56;2.83;;;1.00;;
78871;SDS011;68247;43.514;1.502;2023-04-25T03:49:22;2.38;;;0.93;;
78871;SDS011;68247;43.514;1.502;2023-04-25T03:51:47;2.50;;;0.97;;
78871;SDS011;68247;43.514;1.502;2023-04-25T03:54:13;2.73;;;1.00;;
78871;SDS011;68247;43.514;1.502;2023-04-25T03:56:38;2.10;;;0.90;;
78871;SDS011;68247;43.514;1.502;2023-04-25T03:59:03;2.20;;;1.00;;
78871;SDS011;68247;43.514;1.502;2023-04-25T04:01:29;2.73;;;0.80;;
78871;SDS011;68247;43.514;1.502;2023-04-25T04:03:54;2.90;;;0.80;;
78871;SDS011;68247;43.514;1.502;2023-04-25T04:06:20;2.50;;;0.80;;
78871;SDS011;68247;43.514;1.502;2023-04-25T04:08:46;2.07;;;0.80;;
78871;SDS011;68247;43.514;1.502;2023-04-25T04:11:11;2.58;;;0.82;;
78871;SDS011;68247;43.514;1.502;2023-04-25T04:13:37;1.90;;;0.80;;
78871;SDS011;68247;43.514;1.502;2023-04-25T04:16:02;2.40;;;1.00;;
78871;SDS011;68247;43.514;1.502;2023-04-25T04:18:29;2.00;;;0.80;;
78871;SDS011;68247;43.514;1.502;2023-04-25T04:20:54;2.63;;;0.80;;
78871;SDS011;68247;43.514;1.502;2023-04-25T04:23:20;2.65;;;0.90;;
78871;SDS011;68247;43.514;1.502;2023-04-25T04:25:47;2.38;;;0.80;;
78871;SDS011;68247;43.514;1.502;2023-04-25T04:28:13;2.77;;;0.90;;
78871;SDS011;68247;43.514;1.502;2023-04-25T04:30:38;2.93;;;0.80;;
78871;SDS011;68247;43.514;1.502;2023-04-25T04:33:04;2.50;;;0.90;;
78871;SDS011;68247;43.514;1.502;2023-04-25T04:35:29;2.73;;;0.90;;
78871;SDS011;68247;43.514;1.502;2023-04-25T04:37:55;2.00;;;0.83;;
78871;SDS011;68247;43.514;1.502;2023-04-25T04:40:21;2.45;;;0.60;;
78871;SDS011;68247;43.514;1.502;2023-04-25T04:42:47;2.50;;;0.93;;
78871;SDS011;68247;43.514;1.502;2023-04-25T04:45:13;4.03;;;1.00;;
78871;SDS011;68247;43.514;1.502;2023-04-25T04:47:38;2.65;;;1.10;;
78871;SDS011;68247;43.514;1.502;2023-04-25T04:50:05;2.77;;;1.10;;
78871;SDS011;68247;43.514;1.502;2023-04-25T04:52:34;3.92;;;1.10;;
78871;SDS011;68247;43.514;1.502;2023-04-25T04:55:03;4.50;;;1.55;;
78871;SDS011;68247;43.514;1.502;2023-04-25T04:57:30;5.97;;;1.40;;
78871;SDS011;68247;43.514;1.502;2023-04-25T04:59:56;3.13;;;1.13;;
78871;SDS011;68247;43.514;1.502;2023-04-25T05:02:21;4.55;;;1.20;;
78871;SDS011;68247;43.514;1.502;2023-04-25T05:04:47;2.50;;;1.27;;
78871;SDS011;68247;43.514;1.502;2023-04-25T05:07:12;2.80;;;1.10;;
78871;SDS011;68247;43.514;1.502;2023-04-25T05:09:38;3.07;;;1.17;;
78871;SDS011;68247;43.514;1.502;2023-04-25T05:12:03;2.50;;;1.30;;
78871;SDS011;68247;43.514;1.502;2023-04-25T05:14:29;3.10;;;1.15;;
78871;SDS011;68247;43.514;1.502;2023-04-25T05:16:54;3.33;;;1.20;;
78871;SDS011;68247;43.514;1.502;2023-04-25T05:19:20;3.10;;;1.20;;
78871;SDS011;68247;43.514;1.502;2023-04-25T05:21:45;2.93;;;1.07;;
78871;SDS011;68247;43.514;1.502;2023-04-25T05:24:11;4.80;;;1.35;;
78871;SDS011;68247;43.514;1.502;2023-04-25T05:26:37;3.53;;;1.57;;
78871;SDS011;68247;43.514;1.502;2023-04-25T05:29:02;3.60;;;1.60;;
78871;SDS011;68247;43.514;1.502;2023-04-25T05:31:28;2.63;;;1.10;;
78871;SDS011;68247;43.514;1.502;2023-04-25T05:33:53;2.70;;;1.20;;
78871;SDS011;68247;43.514;1.502;2023-04-25T05:36:19;2.70;;;1.20;;
78871;SDS011;68247;43.514;1.502;2023-04-25T05:38:44;3.10;;;1.50;;
78871;SDS011;68247;43.514;1.502;2023-04-25T05:41:10;3.70;;;1.30;;
78871;SDS011;68247;43.514;1.502;2023-04-25T05:43:35;3.90;;;1.35;;
78871;SDS011;68247;43.514;1.502;2023-04-25T05:46:01;3.17;;;1.37;;
78871;SDS011;68247;43.514;1.502;2023-04-25T05:48:26;3.00;;;1.20;;
78871;SDS011;68247;43.514;1.502;2023-04-25T05:50:52;3.33;;;1.30;;
78871;SDS011;68247;43.514;1.502;2023-04-25T05:53:18;3.70;;;1.50;;
78871;SDS011;68247;43.514;1.502;2023-04-25T05:55:44;3.90;;;1.47;;
78871;SDS011;68247;43.514;1.502;2023-04-25T05:58:10;3.50;;;1.55;;
78871;SDS011;68247;43.514;1.502;2023-04-25T06:00:35;2.87;;;1.20;;
78871;SDS011;68247;43.514;1.502;2023-04-25T06:03:00;3.47;;;1.30;;
78871;SDS011;68247;43.514;1.502;2023-04-25T06:05:26;2.70;;;1.40;;
78871;SDS011;68247;43.514;1.502;2023-04-25T06:07:52;2.93;;;1.23;;
78871;SDS011;68247;43.514;1.502;2023-04-25T06:10:17;2.57;;;1.47;;
78871;SDS011;68247;43.514;1.502;2023-04-25T06:12:43;5.53;;;1.50;;
78871;SDS011;68247;43.514;1.502;2023-04-25T06:15:09;2.77;;;1.37;;
78871;SDS011;68247;43.514;1.502;2023-04-25T06:17:35;2.60;;;1.23;;
78871;SDS011;68247;43.514;1.502;2023-04-25T06:20:00;3.83;;;1.17;;
78871;SDS011;68247;43.514;1.502;2023-04-25T06:22:26;3.57;;;1.67;;
78871;SDS011;68247;43.514;1.502;2023-04-25T06:24:52;2.90;;;1.13;;
78871;SDS011;68247;43.514;1.502;2023-04-25T06:27:17;3.50;;;1.30;;
78871;SDS011;68247;43.514;1.502;2023-04-25T06:29:42;3.87;;;1.50;;
78871;SDS011;68247;43.514;1.502;2023-04-25T06:32:08;3.13;;;1.27;;
78871;SDS011;68247;43.514;1.502;2023-04-25T06:34:33;3.47;;;1.30;;
78871;SDS011;68247;43.514;1.502;2023-04-25T06:36:59;5.78;;;1.67;;
78871;SDS011;68247;43.514;1.502;2023-04-25T06:39:24;2.83;;;1.43;;
78871;SDS011;68247;43.514;1.502;2023-04-25T06:41:50;5.20;;;1.70;;
78871;SDS011;68247;43.514;1.502;2023-04-25T06:44:15;3.10;;;1.20;;
78871;SDS011;68247;43.514;1.502;2023-04-25T06:46:41;2.80;;;1.37;;
78871;SDS011;68247;43.514;1.502;2023-04-25T06:49:06;4.00;;;1.43;;
78871;SDS011;68247;43.514;1.502;2023-04-25T06:51:32;2.78;;;1.30;;
78871;SDS011;68247;43.514;1.502;2023-04-25T06:53:57;4.33;;;1.10;;
78871;SDS011;68247;43.514;1.502;2023-04-25T06:56:23;2.77;;;1.10;;
78871;SDS011;68247;43.514;1.502;2023-04-25T06:58:48;3.90;;;1.20;;
78871;SDS011;68247;43.514;1.502;2023-04-25T07:01:14;3.23;;;1.20;;
78871;SDS011;68247;43.514;1.502;2023-04-25T07:03:39;2.63;;;1.17;;
78871;SDS011;68247;43.514;1.502;2023-04-25T07:06:05;3.53;;;1.30;;
78871;SDS011;68247;43.514;1.502;2023-04-25T07:08:30;2.90;;;1.23;;
78871;SDS011;68247;43.514;1.502;2023-04-25T07:10:56;4.50;;;1.40;;
78871;SDS011;68247;43.514;1.502;2023-04-25T07:13:21;2.42;;;1.15;;
78871;SDS011;68247;43.514;1.502;2023-04-25T07:15:47;3.20;;;1.17;;
78871;SDS011;68247;43.514;1.502;2023-04-25T07:18:13;2.50;;;1.10;;
78871;SDS011;68247;43.514;1.502;2023-04-25T07:20:39;3.13;;;1.17;;
78871;SDS011;68247;43.514;1.502;2023-04-25T07:23:04;3.70;;;1.20;;
78871;SDS011;68247;43.514;1.502;2023-04-25T07:25:30;3.65;;;1.50;;
78871;SDS011;68247;43.514;1.502;2023-04-25T07:27:55;5.27;;;1.73;;
78871;SDS011;68247;43.514;1.502;2023-04-25T07:30:21;3.53;;;1.43;;
78871;SDS011;68247;43.514;1.502;2023-04-25T07:32:47;2.90;;;1.30;;
78871;SDS011;68247;43.514;1.502;2023-04-25T07:35:13;4.22;;;1.60;;
78871;SDS011;68247;43.514;1.502;2023-04-25T07:37:39;3.10;;;1.30;;
78871;SDS011;68247;43.514;1.502;2023-04-25T07:40:04;4.40;;;1.50;;
78871;SDS011;68247;43.514;1.502;2023-04-25T07:42:30;2.77;;;1.23;;
78871;SDS011;68247;43.514;1.502;2023-04-25T07:44:56;3.55;;;1.50;;
78871;SDS011;68247;43.514;1.502;2023-04-25T07:47:22;5.33;;;1.70;;
78871;SDS011;68247;43.514;1.502;2023-04-25T07:49:47;3.53;;;1.75;;
78871;SDS011;68247;43.514;1.502;2023-04-25T07:52:13;3.63;;;1.53;;
78871;SDS011;68247;43.514;1.502;2023-04-25T07:54:38;4.33;;;1.70;;
78871;SDS011;68247;43.514;1.502;2023-04-25T07:57:04;2.50;;;1.20;;
78871;SDS011;68247;43.514;1.502;2023-04-25T07:59:31;3.07;;;0.90;;
78871;SDS011;68247;43.514;1.502;2023-04-25T08:01:57;2.65;;;0.98;;
78871;SDS011;68247;43.514;1.502;2023-04-25T08:04:22;2.27;;;0.57;;
78871;SDS011;68247;43.514;1.502;2023-04-25T08:06:48;1.90;;;0.60;;
78871;SDS011;68247;43.514;1.502;2023-04-25T08:09:13;11.10;;;5.57;;
78871;SDS011;68247;43.514;1.502;2023-04-25T08:11:40;2.85;;;1.35;;
78871;SDS011;68247;43.514;1.502;2023-04-25T08:14:06;2.28;;;0.70;;
78871;SDS011;68247;43.514;1.502;2023-04-25T08:16:32;3.37;;;0.90;;
78871;SDS011;68247;43.514;1.502;2023-04-25T08:18:58;3.00;;;0.80;;
78871;SDS011;68247;43.514;1.502;2023-04-25T08:21:24;2.72;;;1.00;;
78871;SDS011;68247;43.514;1.502;2023-04-25T08:23:51;2.63;;;1.00;;
78871;SDS011;68247;43.514;1.502;2023-04-25T08:26:17;2.30;;;1.00;;
78871;SDS011;68247;43.514;1.502;2023-04-25T08:28:42;2.55;;;0.98;;
78871;SDS011;68247;43.514;1.502;2023-04-25T08:31:08;2.30;;;0.93;;
78871;SDS011;68247;43.514;1.502;2023-04-25T08:33:33;3.43;;;1.20;;
78871;SDS011;68247;43.514;1.502;2023-04-25T08:35:59;2.23;;;1.07;;
78871;SDS011;68247;43.514;1.502;2023-04-25T08:38:24;5.25;;;0.88;;
78871;SDS011;68247;43.514;1.502;2023-04-25T08:40:50;4.23;;;1.10;;
78871;SDS011;68247;43.514;1.502;2023-04-25T08:43:19;2.67;;;1.20;;
78871;SDS011;68247;43.514;1.502;2023-04-25T08:45:45;2.75;;;1.15;;
78871;SDS011;68247;43.514;1.502;2023-04-25T08:48:14;3.00;;;1.03;;
78871;SDS011;68247;43.514;1.502;2023-04-25T08:50:50;4.93;;;1.10;;
78871;SDS011;68247;43.514;1.502;2023-04-25T08:53:17;3.10;;;1.00;;
78871;SDS011;68247;43.514;1.502;2023-04-25T08:55:47;3.83;;;1.30;;
78871;SDS011;68247;43.514;1.502;2023-04-25T08:58:13;2.20;;;0.90;;
78871;SDS011;68247;43.514;1.502;2023-04-25T09:00:39;4.43;;;1.20;;
78871;SDS011;68247;43.514;1.502;2023-04-25T09:03:05;2.40;;;1.10;;
78871;SDS011;68247;43.514;1.502;2023-04-25T09:05:33;2.58;;;1.27;;
78871;SDS011;68247;43.514;1.502;2023-04-25T09:08:00;4.20;;;1.25;;
78871;SDS011;68247;43.514;1.502;2023-04-25T09:10:26;3.00;;;1.20;;
78871;SDS011;68247;43.514;1.502;2023-04-25T09:13:08;3.03;;;1.20;;
78871;SDS011;68247;43.514;1.502;2023-04-25T09:15:46;3.70;;;1.25;;
78871;SDS011;68247;43.514;1.502;2023-04-25T09:18:25;2.65;;;1.30;;
78871;SDS011;68247;43.514;1.502;2023-04-25T09:20:52;4.63;;;1.10;;
78871;SDS011;68247;43.514;1.502;2023-04-25T09:23:19;2.93;;;1.27;;
78871;SDS011;68247;43.514;1.502;2023-04-25T09:25:47;2.88;;;1.23;;
78871;SDS011;68247;43.514;1.502;2023-04-25T09:28:13;2.42;;;0.98;;
78871;SDS011;68247;43.514;1.502;2023-04-25T09:30:39;3.07;;;0.77;;
78871;SDS011;68247;43.514;1.502;2023-04-25T09:33:05;2.72;;;0.90;;
78871;SDS011;68247;43.514;1.502;2023-04-25T09:35:49;2.40;;;0.70;;
78871;SDS011;68247;43.514;1.502;2023-04-25T09:38:20;2.53;;;0.70;;
78871;SDS011;68247;43.514;1.502;2023-04-25T09:40:48;2.40;;;0.80;;
78871;SDS011;68247;43.514;1.502;2023-04-25T09:45:41;4.10;;;0.80;;
78871;SDS011;68247;43.514;1.502;2023-04-25T09:48:11;2.42;;;0.80;;
78871;SDS011;68247;43.514;1.502;2023-04-25T09:50:37;2.55;;;0.70;;
78871;SDS011;68247;43.514;1.502;2023-04-25T09:53:04;2.40;;;0.80;;
78871;SDS011;68247;43.514;1.502;2023-04-25T09:55:31;2.38;;;0.77;;
78871;SDS011;68247;43.514;1.502;2023-04-25T09:57:57;1.75;;;0.80;;
78871;SDS011;68247;43.514;1.502;2023-04-25T10:00:30;2.78;;;0.80;;
78871;SDS011;68247;43.514;1.502;2023-04-25T10:02:56;2.17;;;0.80;;
78871;SDS011;68247;43.514;1.502;2023-04-25T10:05:22;2.80;;;0.80;;
78871;SDS011;68247;43.514;1.502;2023-04-25T10:07:49;2.35;;;0.90;;
78871;SDS011;68247;43.514;1.502;2023-04-25T10:10:15;4.18;;;0.70;;
78871;SDS011;68247;43.514;1.502;2023-04-25T10:12:41;2.80;;;1.10;;
78871;SDS011;68247;43.514;1.502;2023-04-25T10:15:09;2.77;;;0.97;;
78871;SDS011;68247;43.514;1.502;2023-04-25T10:17:34;3.70;;;1.20;;
78871;SDS011;68247;43.514;1.502;2023-04-25T10:20:03;5.70;;;1.07;;
78871;SDS011;68247;43.514;1.502;2023-04-25T10:22:34;3.10;;;1.00;;
78871;SDS011;68247;43.514;1.502;2023-04-25T10:25:01;2.80;;;1.20;;
78871;SDS011;68247;43.514;1.502;2023-04-25T10:27:28;3.05;;;0.85;;
78871;SDS011;68247;43.514;1.502;2023-04-25T10:32:31;2.90;;;1.10;;
78871;SDS011;68247;43.514;1.502;2023-04-25T10:35:15;2.55;;;1.10;;
78871;SDS011;68247;43.514;1.502;2023-04-25T10:40:31;2.60;;;1.15;;
78871;SDS011;68247;43.514;1.502;2023-04-25T10:43:33;2.63;;;1.23;;
78871;SDS011;68247;43.514;1.502;2023-04-25T10:46:01;2.65;;;1.25;;
78871;SDS011;68247;43.514;1.502;2023-04-25T10:48:28;3.60;;;1.05;;
78871;SDS011;68247;43.514;1.502;2023-04-25T10:51:07;2.63;;;0.70;;
78871;SDS011;68247;43.514;1.502;2023-04-25T10:53:35;2.33;;;1.20;;
78871;SDS011;68247;43.514;1.502;2023-04-25T10:56:11;2.60;;;1.20;;
78871;SDS011;68247;43.514;1.502;2023-04-25T10:58:47;2.92;;;1.10;;
78871;SDS011;68247;43.514;1.502;2023-04-25T11:01:13;2.25;;;0.90;;
78871;SDS011;68247;43.514;1.502;2023-04-25T11:03:40;2.00;;;0.90;;
78871;SDS011;68247;43.514;1.502;2023-04-25T11:06:08;2.60;;;1.07;;
78871;SDS011;68247;43.514;1.502;2023-04-25T11:08:50;3.50;;;1.13;;
78871;SDS011;68247;43.514;1.502;2023-04-25T11:11:16;2.40;;;1.05;;
78871;SDS011;68247;43.514;1.502;2023-04-25T11:13:42;2.60;;;1.10;;
78871;SDS011;68247;43.514;1.502;2023-04-25T11:16:08;3.00;;;1.20;;
78871;SDS011;68247;43.514;1.502;2023-04-25T11:18:34;2.92;;;1.10;;
78871;SDS011;68247;43.514;1.502;2023-04-25T11:20:59;3.83;;;1.43;;
78871;SDS011;68247;43.514;1.502;2023-04-25T11:23:25;3.40;;;1.60;;
78871;SDS011;68247;43.514;1.502;2023-04-25T11:25:51;2.50;;;1.20;;
78871;SDS011;68247;43.514;1.502;2023-04-25T11:28:20;2.80;;;1.30;;
78871;SDS011;68247;43.514;1.502;2023-04-25T11:30:49;2.60;;;1.20;;
78871;SDS011;68247;43.514;1.502;2023-04-25T11:33:18;2.53;;;1.05;;
78871;SDS011;68247;43.514;1.502;2023-04-25T11:35:48;1.77;;;0.80;;
78871;SDS011;68247;43.514;1.502;2023-04-25T11:38:14;3.25;;;1.10;;
78871;SDS011;68247;43.514;1.502;2023-04-25T11:40:40;2.10;;;0.70;;
78871;SDS011;68247;43.514;1.502;2023-04-25T11:43:06;2.00;;;0.70;;
78871;SDS011;68247;43.514;1.502;2023-04-25T11:45:32;1.73;;;0.77;;
78871;SDS011;68247;43.514;1.502;2023-04-25T11:47:57;2.10;;;0.93;;
78871;SDS011;68247;43.514;1.502;2023-04-25T11:50:23;2.63;;;1.00;;
78871;SDS011;68247;43.514;1.502;2023-04-25T11:52:48;2.80;;;1.20;;
78871;SDS011;68247;43.514;1.502;2023-04-25T11:55:14;2.10;;;0.98;;
78871;SDS011;68247;43.514;1.502;2023-04-25T11:57:42;2.17;;;1.17;;
78871;SDS011;68247;43.514;1.502;2023-04-25T12:00:12;2.70;;;1.10;;
78871;SDS011;68247;43.514;1.502;2023-04-25T12:02:42;2.45;;;1.13;;
78871;SDS011;68247;43.514;1.502;2023-04-25T12:05:09;3.15;;;1.20;;
78871;SDS011;68247;43.514;1.502;2023-04-25T12:07:35;2.72;;;1.30;;
78871;SDS011;68247;43.514;1.502;2023-04-25T12:10:06;2.47;;;1.30;;
78871;SDS011;68247;43.514;1.502;2023-04-25T12:12:32;2.95;;;1.30;;
78871;SDS011;68247;43.514;1.502;2023-04-25T12:15:07;2.50;;;1.20;;
78871;SDS011;68247;43.514;1.502;2023-04-25T12:17:34;2.78;;;1.48;;
78871;SDS011;68247;43.514;1.502;2023-04-25T12:20:00;3.53;;;1.60;;
78871;SDS011;68247;43.514;1.502;2023-04-25T12:22:32;2.90;;;1.25;;
78871;SDS011;68247;43.514;1.502;2023-04-25T12:24:57;3.00;;;1.20;;
78871;SDS011;68247;43.514;1.502;2023-04-25T12:27:23;2.83;;;1.33;;
78871;SDS011;68247;43.514;1.502;2023-04-25T12:29:54;2.85;;;1.48;;
78871;SDS011;68247;43.514;1.502;2023-04-25T12:32:20;3.83;;;1.50;;
78871;SDS011;68247;43.514;1.502;2023-04-25T12:34:46;3.10;;;1.60;;
78871;SDS011;68247;43.514;1.502;2023-04-25T12:37:12;3.10;;;1.70;;
78871;SDS011;68247;43.514;1.502;2023-04-25T12:39:37;3.80;;;1.60;;
78871;SDS011;68247;43.514;1.502;2023-04-25T12:42:03;2.60;;;1.20;;
78871;SDS011;68247;43.514;1.502;2023-04-25T12:44:28;3.90;;;1.53;;
78871;SDS011;68247;43.514;1.502;2023-04-25T12:46:54;3.00;;;1.50;;
78871;SDS011;68247;43.514;1.502;2023-04-25T12:49:20;3.30;;;1.70;;
78871;SDS011;68247;43.514;1.502;2023-04-25T12:51:45;4.07;;;1.50;;
78871;SDS011;68247;43.514;1.502;2023-04-25T12:54:11;4.33;;;1.37;;
78871;SDS011;68247;43.514;1.502;2023-04-25T12:56:37;3.53;;;1.30;;
78871;SDS011;68247;43.514;1.502;2023-04-25T12:59:03;3.13;;;1.33;;
78871;SDS011;68247;43.514;1.502;2023-04-25T13:01:28;2.63;;;1.30;;
78871;SDS011;68247;43.514;1.502;2023-04-25T13:03:54;3.10;;;1.48;;
78871;SDS011;68247;43.514;1.502;2023-04-25T13:06:20;2.50;;;1.30;;
78871;SDS011;68247;43.514;1.502;2023-04-25T13:08:46;4.78;;;1.30;;
78871;SDS011;68247;43.514;1.502;2023-04-25T13:11:12;3.77;;;1.30;;
78871;SDS011;68247;43.514;1.502;2023-04-25T13:13:39;2.50;;;1.15;;
78871;SDS011;68247;43.514;1.502;2023-04-25T13:16:05;3.70;;;1.70;;
78871;SDS011;68247;43.514;1.502;2023-04-25T13:18:31;4.40;;;1.40;;
78871;SDS011;68247;43.514;1.502;2023-04-25T13:20:57;3.30;;;1.80;;
78871;SDS011;68247;43.514;1.502;2023-04-25T13:23:25;3.43;;;1.43;;
78871;SDS011;68247;43.514;1.502;2023-04-25T13:25:51;3.63;;;1.98;;
78871;SDS011;68247;43.514;1.502;2023-04-25T13:28:17;3.38;;;1.85;;
78871;SDS011;68247;43.514;1.502;2023-04-25T13:30:42;3.23;;;1.60;;
78871;SDS011;68247;43.514;1.502;2023-04-25T13:33:08;3.60;;;1.90;;
78871;SDS011;68247;43.514;1.502;2023-04-25T13:35:34;3.30;;;1.80;;
78871;SDS011;68247;43.514;1.502;2023-04-25T13:38:02;5.53;;;1.85;;
78871;SDS011;68247;43.514;1.502;2023-04-25T13:40:28;3.72;;;2.10;;
78871;SDS011;68247;43.514;1.502;2023-04-25T13:42:54;3.40;;;1.77;;
78871;SDS011;68247;43.514;1.502;2023-04-25T13:45:20;4.10;;;1.70;;
78871;SDS011;68247;43.514;1.502;2023-04-25T13:47:46;3.20;;;1.77;;
78871;SDS011;68247;43.514;1.502;2023-04-25T13:50:11;3.63;;;2.00;;
78871;SDS011;68247;43.514;1.502;2023-04-25T13:52:38;3.28;;;1.83;;
78871;SDS011;68247;43.514;1.502;2023-04-25T13:55:04;3.72;;;1.80;;
78871;SDS011;68247;43.514;1.502;2023-04-25T13:57:31;3.22;;;1.80;;
78871;SDS011;68247;43.514;1.502;2023-04-25T13:59:57;3.83;;;1.67;;
78871;SDS011;68247;43.514;1.502;2023-04-25T14:02:23;3.38;;;1.63;;
78871;SDS011;68247;43.514;1.502;2023-04-25T14:04:48;3.57;;;2.10;;
78871;SDS011;68247;43.514;1.502;2023-04-25T14:07:14;3.47;;;1.83;;
78871;SDS011;68247;43.514;1.502;2023-04-25T14:09:42;3.47;;;1.63;;
78871;SDS011;68247;43.514;1.502;2023-04-25T14:12:08;3.40;;;1.97;;
78871;SDS011;68247;43.514;1.502;2023-04-25T14:14:34;3.80;;;1.97;;
78871;SDS011;68247;43.514;1.502;2023-04-25T14:16:59;3.58;;;1.60;;
78871;SDS011;68247;43.514;1.502;2023-04-25T14:19:24;4.17;;;1.57;;
78871;SDS011;68247;43.514;1.502;2023-04-25T14:21:50;3.07;;;1.60;;
78871;SDS011;68247;43.514;1.502;2023-04-25T14:24:15;2.80;;;1.30;;
78871;SDS011;68247;43.514;1.502;2023-04-25T14:26:41;3.13;;;1.43;;
78871;SDS011;68247;43.514;1.502;2023-04-25T14:29:07;2.40;;;1.30;;
78871;SDS011;68247;43.514;1.502;2023-04-25T14:31:34;3.00;;;1.40;;
78871;SDS011;68247;43.514;1.502;2023-04-25T14:34:00;3.50;;;1.40;;
78871;SDS011;68247;43.514;1.502;2023-04-25T14:36:27;3.33;;;1.58;;
78871;SDS011;68247;43.514;1.502;2023-04-25T14:38:53;3.10;;;1.60;;
78871;SDS011;68247;43.514;1.502;2023-04-25T14:41:19;2.93;;;1.10;;
78871;SDS011;68247;43.514;1.502;2023-04-25T14:43:44;4.13;;;1.47;;
78871;SDS011;68247;43.514;1.502;2023-04-25T14:46:10;2.58;;;1.20;;
78871;SDS011;68247;43.514;1.502;2023-04-25T14:48:36;2.80;;;1.20;;
78871;SDS011;68247;43.514;1.502;2023-04-25T14:51:01;3.90;;;1.73;;